Météo Nord-Pas-de-Calais   La météo au plus près de chez vous

Station météorologique

Observations météo à Avord (18092)

18092001 175 m Dernier relevé à 17:36
24.5°C
Humidité 44 % Vent 4.7 km/h 1020.6 hPa

Journée consultée

Mardi 1 Septembre 2026

Synthèse de la journée

Périodes de référence en UTC

Température maximale

25.8°C

à 16:00

06h 06h

Température minimale

12.3°C

à 06:30

18h 18h

Rafale maximale

20 km/h

à 15:18

00h 00h

Précipitations

0 mm

Cumul quotidien

06h 06h

Graphiques de la journée

Heure locale Réduire

Données détaillées

Relevés météo

Pas de 6 minutes Afficher les relevés infra-horaires
Relevés météo détaillés à Avord pour le Mardi 1 Septembre 2026
Heure Température °C Point de rosée °C Humidité % Vent moyen (raf.), km/h Précipitations mm Température à 10 cm °C Température à 20 cm °C Température à 50 cm °C Température à 100 cm °C Visibilité m Pression hPa Nébulosité Octas
17:36 24.5 °C 11.4 °C 44 % 8 km/h (12 km/h) 0 mm0 mm 22.2 °C 21.4 °C 21.4 °C 21.4 °C 60000 m 1020.3 hPa
17:30 24.5 °C 11.8 °C 45 % 9 km/h (14 km/h) 0 mm0 mm 22.1 °C 21.4 °C 21.4 °C 21.4 °C 60000 m 1020.3 hPa
17:24 24.6 °C 11.9 °C 45 % 8 km/h (14 km/h) 0 mm0 mm 22.1 °C 21.3 °C 21.4 °C 21.4 °C 60000 m 1020.3 hPa
17:18 24.5 °C 11.1 °C 43 % 8 km/h (13 km/h) 0 mm0 mm 22.1 °C 21.3 °C 21.4 °C 21.4 °C 60000 m 1020.4 hPa
17:12 24.6 °C 11.5 °C 44 % 6 km/h (13 km/h) 0 mm0 mm 22.1 °C 21.3 °C 21.4 °C 21.4 °C 60000 m 1020.4 hPa
17:06 24.6 °C 11.9 °C 45 % 8 km/h (13 km/h) 0 mm0 mm 22 °C 21.2 °C 21.4 °C 21.4 °C 60000 m 1020.4 hPa
17:00 24.6 °C 11.9 °C 45 % 9 km/h (15 km/h) 0 mm0 mm 22 °C 21.2 °C 21.4 °C 21.4 °C 56120 m 1020.4 hPa 6 Octas
16:54 24.9 °C 11.8 °C 44 % 7 km/h (12 km/h) 0 mm0 mm 21.9 °C 21.2 °C 21.4 °C 21.4 °C 56120 m 1020.4 hPa
16:48 24.7 °C 11.6 °C 44 % 4 km/h (12 km/h) 0 mm0 mm 21.9 °C 21.2 °C 21.4 °C 21.4 °C 58740 m 1020.5 hPa
16:42 24.6 °C 11.2 °C 43 % 3 km/h (7 km/h) 0 mm0 mm 21.9 °C 21.2 °C 21.4 °C 21.4 °C 58740 m 1020.6 hPa
16:36 24.6 °C 11.5 °C 44 % 5 km/h (9 km/h) 0 mm0 mm 21.8 °C 21.1 °C 21.4 °C 21.4 °C 54580 m 1020.6 hPa
16:30 24.3 °C 11.3 °C 44 % 4 km/h (10 km/h) 0 mm0 mm 21.8 °C 21.1 °C 21.4 °C 21.4 °C 52810 m 1020.7 hPa
16:24 25 °C 12.2 °C 45 % 6 km/h (12 km/h) 0 mm0 mm 21.7 °C 21.1 °C 21.4 °C 21.4 °C 58270 m 1020.6 hPa
16:18 25 °C 11.9 °C 44 % 7 km/h (12 km/h) 0 mm0 mm 21.7 °C 21 °C 21.4 °C 21.4 °C 59710 m 1020.7 hPa
16:12 24.7 °C 12.6 °C 47 % 5 km/h (11 km/h) 0 mm0 mm 21.6 °C 21 °C 21.4 °C 21.4 °C 59730 m 1020.7 hPa
16:06 24.5 °C 11.8 °C 45 % 5 km/h (10 km/h) 0 mm0 mm 21.6 °C 21 °C 21.4 °C 21.4 °C 60000 m 1020.9 hPa
16:00 24.7 °C 11.6 °C 44 % 6 km/h (12 km/h) 0 mm0 mm 21.5 °C 21 °C 21.4 °C 21.4 °C 59830 m 1020.9 hPa 6 Octas
15:54 24.3 °C 11.6 °C 45 % 6 km/h (12 km/h) 0 mm0 mm 21.5 °C 21 °C 21.4 °C 21.4 °C 59940 m 1020.9 hPa
15:48 24.3 °C 11.3 °C 44 % 8 km/h (16 km/h) 0 mm0 mm 21.5 °C 20.9 °C 21.4 °C 21.4 °C 58670 m 1021 hPa
15:42 24.8 °C 11.4 °C 43 % 11 km/h (17 km/h) 0 mm0 mm 21.4 °C 20.9 °C 21.4 °C 21.4 °C 18920 m 1021 hPa
15:36 25 °C 12.2 °C 45 % 10 km/h (19 km/h) 0 mm0 mm 21.3 °C 20.9 °C 21.5 °C 21.4 °C 18920 m 1020.9 hPa
15:30 24.5 °C 11.4 °C 44 % 6 km/h (14 km/h) 0 mm0 mm 21.3 °C 20.9 °C 21.4 °C 21.4 °C 56430 m 1021 hPa
15:24 24.7 °C 12.3 °C 46 % 7 km/h (14 km/h) 0 mm0 mm 21.3 °C 20.8 °C 21.4 °C 21.4 °C 59380 m 1021 hPa
15:18 24.8 °C 12.1 °C 45 % 11 km/h (20 km/h) 0 mm0 mm 21.2 °C 20.8 °C 21.4 °C 21.4 °C 60000 m 1021.1 hPa
15:12 25.4 °C 11.9 °C 43 % 0 mm0 mm 21.2 °C 20.8 °C 21.4 °C 21.4 °C 59080 m 1021 hPa
15:06 25.7 °C 12.5 °C 44 % 0 mm0 mm 21.1 °C 20.8 °C 21.4 °C 21.4 °C 59080 m 1021.1 hPa
15:00 24.6 °C 11.9 °C 45 % 0 mm0 mm 21 °C 20.7 °C 21.4 °C 21.4 °C 60000 m 1021.3 hPa
14:54 24.3 °C 11.6 °C 45 % 0 mm0 mm 21 °C 20.7 °C 21.4 °C 21.4 °C 60000 m 1021.3 hPa
14:48 24.6 °C 12.2 °C 46 % 0 mm0 mm 20.9 °C 20.7 °C 21.5 °C 21.4 °C 60000 m 1021.4 hPa
14:42 24.2 °C 11.8 °C 46 % 0 mm0 mm 20.9 °C 20.7 °C 21.4 °C 21.4 °C 60000 m 1021.4 hPa
14:36 24.7 °C 12.3 °C 46 % 0 mm0 mm 20.8 °C 20.7 °C 21.5 °C 21.4 °C 59830 m 1021.5 hPa
14:30 24.2 °C 12.5 °C 48 % 0 mm0 mm 20.8 °C 20.7 °C 21.4 °C 21.4 °C 48480 m 1021.6 hPa
14:24 24.1 °C 12.4 °C 48 % 0 mm0 mm 20.7 °C 20.7 °C 21.5 °C 21.4 °C 50160 m 1021.7 hPa
14:18 23.8 °C 11.8 °C 47 % 0 mm0 mm 20.7 °C 20.7 °C 21.5 °C 21.5 °C 59230 m 1021.7 hPa
14:12 24.5 °C 12.4 °C 47 % 0 mm0 mm 20.7 °C 20.6 °C 21.5 °C 21.4 °C 58270 m 1021.7 hPa
14:06 23.9 °C 12.2 °C 48 % 0 mm0 mm 20.6 °C 20.6 °C 21.4 °C 21.4 °C 60000 m 1021.7 hPa
14:00 24.1 °C 12.7 °C 49 % 0 mm0 mm 20.6 °C 20.6 °C 21.5 °C 21.5 °C 60000 m 1021.8 hPa
13:54 23.8 °C 12.4 °C 49 % 0 mm0 mm 20.5 °C 20.6 °C 21.5 °C 21.4 °C 60000 m 1021.9 hPa
13:48 23.5 °C 13.4 °C 53 % 0 mm0 mm 20.4 °C 20.6 °C 21.5 °C 21.4 °C 60000 m 1021.9 hPa
13:42 23 °C 13.2 °C 54 % 0 mm0 mm 20.4 °C 20.5 °C 21.5 °C 21.4 °C 60000 m 1022 hPa
13:36 22.5 °C 13 °C 55 % 0 mm0 mm 20.4 °C 20.5 °C 21.5 °C 21.4 °C 60000 m 1022 hPa
13:30 22.5 °C 12.4 °C 53 % 0 mm0 mm 20.3 °C 20.5 °C 21.5 °C 21.4 °C 60000 m 1022.1 hPa
13:24 23 °C 13.2 °C 54 % 0 mm0 mm 20.2 °C 20.5 °C 21.5 °C 21.4 °C 60000 m 1022.1 hPa
13:18 22.6 °C 13.1 °C 55 % 0 mm0 mm 20.2 °C 20.5 °C 21.5 °C 21.4 °C 60000 m 1022.2 hPa
13:12 22.5 °C 13.3 °C 56 % 0 mm0 mm 20.2 °C 20.5 °C 21.5 °C 21.4 °C 56470 m 1022.3 hPa
13:06 22.4 °C 13.2 °C 56 % 0 mm0 mm 20.2 °C 20.5 °C 21.5 °C 21.4 °C 56470 m 1022.3 hPa
13:00 22.6 °C 13.6 °C 57 % 0 mm0 mm 20.1 °C 20.5 °C 21.5 °C 21.4 °C 56690 m 1022.2 hPa
12:54 22.3 °C 13.6 °C 58 % 0 mm0 mm 20 °C 20.5 °C 21.5 °C 21.4 °C 57470 m 1022.3 hPa
12:48 21.8 °C 13.2 °C 58 % 0 mm0 mm 20 °C 20.5 °C 21.5 °C 21.4 °C 54560 m 1022.4 hPa
12:42 22.1 °C 13.2 °C 57 % 0 mm0 mm 20 °C 20.4 °C 21.5 °C 21.4 °C 53620 m 1022.4 hPa
12:36 22.7 °C 14 °C 58 % 0 mm0 mm 19.9 °C 20.5 °C 21.5 °C 21.4 °C 57680 m 1022.3 hPa
12:30 22.4 °C 13.7 °C 58 % 0 mm0 mm 19.9 °C 20.5 °C 21.5 °C 21.4 °C 57640 m 1022.3 hPa
12:24 22.4 °C 14.3 °C 60 % 0 mm0 mm 19.9 °C 20.5 °C 21.5 °C 21.4 °C 57350 m 1022.4 hPa
12:18 22.1 °C 14 °C 60 % 0 mm0 mm 19.8 °C 20.4 °C 21.5 °C 21.4 °C 56740 m 1022.3 hPa
12:12 21.8 °C 14.4 °C 63 % 0 mm0 mm 19.8 °C 20.5 °C 21.5 °C 21.5 °C 56130 m 1022.5 hPa
12:06 21.1 °C 14 °C 64 % 0 mm0 mm 19.8 °C 20.5 °C 21.5 °C 21.5 °C 57670 m 1022.5 hPa
12:00 20.9 °C 13.1 °C 61 % 0 mm0 mm 19.7 °C 20.4 °C 21.5 °C 21.4 °C 56260 m 1022.6 hPa
11:54 21.2 °C 14.4 °C 65 % 0 mm0 mm 19.7 °C 20.4 °C 21.5 °C 21.4 °C 53090 m 1022.6 hPa
11:48 20.7 °C 14.1 °C 66 % 0 mm0 mm 19.7 °C 20.5 °C 21.5 °C 21.5 °C 19870 m 1022.8 hPa
11:42 20.5 °C 14.4 °C 68 % 0 mm0 mm 19.7 °C 20.5 °C 21.5 °C 21.4 °C 50500 m 1022.8 hPa
11:36 20.4 °C 14.5 °C 69 % 0 mm0 mm 19.6 °C 20.5 °C 21.5 °C 21.5 °C 44930 m 1022.8 hPa
11:30 19.8 °C 14.2 °C 70 % 0 mm0 mm 19.6 °C 20.4 °C 21.5 °C 21.4 °C 49660 m 1022.8 hPa
11:24 19.7 °C 14.1 °C 70 % 0 mm0 mm 19.6 °C 20.4 °C 21.5 °C 21.4 °C 50520 m 1022.8 hPa
11:18 19.6 °C 14.2 °C 71 % 0 mm0 mm 19.5 °C 20.5 °C 21.5 °C 21.4 °C 45680 m 1022.8 hPa
11:12 19.8 °C 13.9 °C 69 % 0 mm0 mm 19.5 °C 20.5 °C 21.5 °C 21.5 °C 52340 m 1022.8 hPa
11:06 20.1 °C 14.7 °C 71 % 0 mm0 mm 19.5 °C 20.5 °C 21.5 °C 21.4 °C 52880 m 1022.9 hPa
11:00 19.8 °C 14.8 °C 73 % 0 mm0 mm 19.5 °C 20.5 °C 21.5 °C 21.4 °C 50590 m 1022.9 hPa
10:54 19.3 °C 14.1 °C 72 % 0 mm0 mm 19.4 °C 20.5 °C 21.5 °C 21.4 °C 54630 m 1022.9 hPa
10:48 19.1 °C 13.9 °C 72 % 0 mm0 mm 19.4 °C 20.5 °C 21.5 °C 21.4 °C 50770 m 1022.9 hPa
10:42 18.9 °C 14.2 °C 74 % 0 mm0 mm 19.4 °C 20.5 °C 21.5 °C 21.4 °C 46710 m 1022.9 hPa
10:36 19 °C 14.3 °C 74 % 0 mm0 mm 19.4 °C 20.5 °C 21.5 °C 21.4 °C 47220 m 1022.8 hPa
10:30 18.8 °C 14.9 °C 78 % 0 mm0 mm 19.3 °C 20.5 °C 21.5 °C 21.5 °C 49030 m 1022.8 hPa
10:24 18.3 °C 14.8 °C 80 % 0 mm0 mm 19.3 °C 20.6 °C 21.6 °C 21.5 °C 45970 m 1022.8 hPa
10:18 17.8 °C 14.3 °C 80 % 0 mm0 mm 19.3 °C 20.5 °C 21.5 °C 21.4 °C 52270 m 1022.9 hPa
10:12 17.6 °C 14.3 °C 81 % 0 mm0 mm 19.3 °C 20.5 °C 21.5 °C 21.4 °C 57660 m 1022.9 hPa
10:06 17.2 °C 14.1 °C 82 % 0 mm0 mm 19.3 °C 20.5 °C 21.5 °C 21.4 °C 49840 m 1022.9 hPa
10:00 17.2 °C 14.1 °C 82 % 0 mm0 mm 19.3 °C 20.6 °C 21.6 °C 21.5 °C 52040 m 1022.8 hPa
09:54 16.8 °C 14.1 °C 84 % 0 mm0 mm 19.3 °C 20.6 °C 21.5 °C 21.5 °C 48150 m 1022.9 hPa
09:48 16.9 °C 14.5 °C 86 % 0 mm0 mm 19.3 °C 20.6 °C 21.6 °C 21.5 °C 60000 m 1022.8 hPa
09:42 16.4 °C 14.2 °C 87 % 0 mm0 mm 19.3 °C 20.6 °C 21.5 °C 21.5 °C 53270 m 1022.8 hPa
09:36 16.3 °C 14.1 °C 87 % 0 mm0 mm 19.3 °C 20.6 °C 21.6 °C 21.5 °C 47380 m 1022.8 hPa
09:30 16 °C 14.2 °C 89 % 0 mm0 mm 19.3 °C 20.6 °C 21.6 °C 21.5 °C 50750 m 1022.6 hPa
09:24 15.9 °C 14.1 °C 89 % 0 mm0 mm 19.3 °C 20.6 °C 21.6 °C 21.4 °C 49910 m 1022.7 hPa
09:18 15.8 °C 14.3 °C 91 % 10 km/h (13 km/h) 0 mm0 mm 19.3 °C 20.7 °C 21.6 °C 21.5 °C 52820 m 1022.7 hPa
09:12 15.5 °C 14.2 °C 92 % 9 km/h (13 km/h) 0 mm0 mm 19.3 °C 20.7 °C 21.6 °C 21.5 °C 52910 m 1022.7 hPa
09:06 15.3 °C 14 °C 92 % 8 km/h (11 km/h) 0 mm0 mm 19.3 °C 20.6 °C 21.5 °C 21.4 °C 39240 m 1022.7 hPa
09:00 15.1 °C 14.1 °C 94 % 8 km/h (10 km/h) 0 mm0 mm 19.3 °C 20.7 °C 21.6 °C 21.5 °C 34290 m 1022.6 hPa
08:54 14.8 °C 14 °C 95 % 7 km/h (10 km/h) 0 mm0 mm 19.3 °C 20.7 °C 21.6 °C 21.5 °C 50440 m 1022.7 hPa
08:48 14.6 °C 14 °C 96 % 6 km/h (10 km/h) 0 mm0 mm 19.4 °C 20.7 °C 21.6 °C 21.5 °C 53260 m 1022.7 hPa
08:42 14.4 °C 13.4 °C 94 % 7 km/h (10 km/h) 0 mm0 mm 19.4 °C 20.7 °C 21.6 °C 21.4 °C 50500 m 1022.7 hPa
08:36 14.5 °C 13.7 °C 95 % 7 km/h (10 km/h) 0 mm0 mm 19.4 °C 20.7 °C 21.5 °C 21.5 °C 51480 m 1022.7 hPa
08:30 14.4 °C 13.8 °C 96 % 6 km/h (9 km/h) 0 mm0 mm 19.4 °C 20.7 °C 21.6 °C 21.4 °C 49710 m 1022.7 hPa
08:24 14.1 °C 13.6 °C 97 % 6 km/h (9 km/h) 0 mm0 mm 19.4 °C 20.8 °C 21.6 °C 21.5 °C 52670 m 1022.6 hPa
08:18 13.9 °C 13.4 °C 97 % 6 km/h (9 km/h) 0 mm0 mm 19.5 °C 20.8 °C 21.6 °C 21.4 °C 52480 m 1022.6 hPa
08:12 13.8 °C 13.5 °C 98 % 6 km/h (8 km/h) 0 mm0 mm 19.5 °C 20.8 °C 21.6 °C 21.5 °C 52070 m 1022.5 hPa
08:06 13.7 °C 13.4 °C 98 % 6 km/h (8 km/h) 0 mm0 mm 19.5 °C 20.8 °C 21.6 °C 21.5 °C 51820 m 1022.6 hPa
08:00 13.5 °C 13.3 °C 99 % 5 km/h (7 km/h) 0 mm0 mm 19.5 °C 20.8 °C 21.6 °C 21.5 °C 51230 m 1022.6 hPa 7 Octas
07:54 13.2 °C 13 °C 99 % 5 km/h (6 km/h) 0 mm0 mm 19.5 °C 20.8 °C 21.6 °C 21.5 °C 46540 m 1022.6 hPa
07:48 13 °C 12.8 °C 99 % 4 km/h (6 km/h) 0 mm0 mm 19.6 °C 20.8 °C 21.6 °C 21.5 °C 37460 m 1022.5 hPa
07:42 13 °C 12.8 °C 99 % 4 km/h (6 km/h) 0 mm0 mm 19.6 °C 20.9 °C 21.6 °C 21.5 °C 37630 m 1022.4 hPa
07:36 12.9 °C 12.7 °C 99 % 5 km/h (6 km/h) 0 mm0 mm 19.6 °C 20.9 °C 21.6 °C 21.5 °C 44570 m 1022.4 hPa
07:30 12.9 °C 12.7 °C 99 % 4 km/h (5 km/h) 0 mm0 mm 19.6 °C 20.9 °C 21.6 °C 21.5 °C 45370 m 1022.3 hPa
07:24 12.7 °C 12.5 °C 99 % 5 km/h (6 km/h) 0 mm0 mm 19.7 °C 20.9 °C 21.6 °C 21.5 °C 47160 m 1022.2 hPa
07:18 12.7 °C 12.5 °C 99 % 4 km/h (5 km/h) 0 mm0 mm 19.7 °C 20.9 °C 21.6 °C 21.5 °C 44670 m 1022.3 hPa
07:12 12.7 °C 12.5 °C 99 % 4 km/h (5 km/h) 0 mm0 mm 19.7 °C 20.9 °C 21.6 °C 21.5 °C 42740 m 1022.3 hPa
07:06 12.7 °C 12.5 °C 99 % 4 km/h (5 km/h) 0 mm0 mm 19.7 °C 20.9 °C 21.6 °C 21.5 °C 38220 m 1022.3 hPa
07:00 12.6 °C 12.4 °C 99 % 4 km/h (6 km/h) 0 mm0 mm 19.7 °C 20.9 °C 21.6 °C 21.5 °C 37670 m 1022.3 hPa
06:54 12.6 °C 12.4 °C 99 % 5 km/h (6 km/h) 0 mm0 mm 19.7 °C 21 °C 21.6 °C 21.5 °C 39860 m 1022.2 hPa
06:48 12.5 °C 12.3 °C 99 % 5 km/h (6 km/h) 0 mm0 mm 19.8 °C 21 °C 21.6 °C 21.5 °C 39410 m 1022.2 hPa
06:42 12.4 °C 12.1 °C 98 % 6 km/h (8 km/h) 0 mm0 mm 19.8 °C 21 °C 21.6 °C 21.5 °C 32480 m 1022.3 hPa
06:36 12.4 °C 12.1 °C 98 % 6 km/h (8 km/h) 0 mm0 mm 19.8 °C 21 °C 21.6 °C 21.5 °C 30800 m 1022.3 hPa
06:30 12.3 °C 11.8 °C 97 % 7 km/h (9 km/h) 0 mm0 mm 19.8 °C 21 °C 21.6 °C 21.5 °C 35570 m 1022.3 hPa
06:24 12.5 °C 12 °C 97 % 7 km/h (9 km/h) 0 mm0 mm 19.9 °C 21 °C 21.6 °C 21.5 °C 45930 m 1022.2 hPa
06:18 12.6 °C 12.1 °C 97 % 7 km/h (9 km/h) 0 mm0 mm 19.9 °C 21 °C 21.6 °C 21.5 °C 56810 m 1022.1 hPa
06:12 12.8 °C 12.3 °C 97 % 8 km/h (9 km/h) 0 mm0 mm 19.9 °C 21 °C 21.6 °C 21.5 °C 58840 m 1022.1 hPa
06:06 12.9 °C 12.3 °C 96 % 8 km/h (9 km/h) 0 mm0 mm 19.9 °C 21.1 °C 21.6 °C 21.5 °C 57070 m 1022.1 hPa
06:00 13.1 °C 12.6 °C 97 % 7 km/h (9 km/h) 0 mm0 mm 19.9 °C 21.1 °C 21.6 °C 21.5 °C 49940 m 1022.1 hPa
05:54 13.1 °C 12.5 °C 96 % 8 km/h (10 km/h) 0 mm0 mm 20 °C 21.1 °C 21.6 °C 21.5 °C 46070 m 1022.1 hPa
05:48 13.2 °C 12.6 °C 96 % 9 km/h (10 km/h) 0 mm0 mm 20 °C 21.1 °C 21.6 °C 21.5 °C 52290 m 1022.1 hPa
05:42 13.3 °C 12.7 °C 96 % 9 km/h (10 km/h) 0 mm0 mm 20 °C 21.1 °C 21.6 °C 21.5 °C 58190 m 1022 hPa
05:36 13.3 °C 12.5 °C 95 % 8 km/h (9 km/h) 0 mm0 mm 20 °C 21.1 °C 21.6 °C 21.5 °C 55390 m 1022 hPa
05:30 13.4 °C 12.8 °C 96 % 9 km/h (11 km/h) 0 mm0 mm 20.1 °C 21.1 °C 21.6 °C 21.5 °C 58060 m 1022.1 hPa
05:24 13.3 °C 12.4 °C 94 % 9 km/h (11 km/h) 0 mm0 mm 20.1 °C 21.2 °C 21.6 °C 21.5 °C 59920 m 1022.1 hPa
05:18 13.6 °C 12.7 °C 94 % 9 km/h (10 km/h) 0 mm0 mm 20.1 °C 21.2 °C 21.6 °C 21.5 °C 53390 m 1022.1 hPa
05:12 13.8 °C 12.7 °C 93 % 9 km/h (10 km/h) 0 mm0 mm 20.1 °C 21.2 °C 21.6 °C 21.5 °C 50890 m 1022 hPa
05:06 14.2 °C 13.1 °C 93 % 7 km/h (9 km/h) 0 mm0 mm 20.1 °C 21.2 °C 21.6 °C 21.5 °C 59170 m 1022 hPa
05:00 14.5 °C 13.2 °C 92 % 8 km/h (10 km/h) 0 mm0 mm 20.2 °C 21.2 °C 21.6 °C 21.5 °C 59660 m 1022 hPa
04:54 14.6 °C 13.5 °C 93 % 8 km/h (10 km/h) 0 mm0 mm 20.2 °C 21.2 °C 21.6 °C 21.5 °C 60000 m 1022 hPa
04:48 14.4 °C 13.3 °C 93 % 7 km/h (9 km/h) 0 mm0 mm 20.2 °C 21.2 °C 21.6 °C 21.5 °C 60000 m 1022 hPa
04:42 14.4 °C 13.3 °C 93 % 6 km/h (8 km/h) 0 mm0 mm 20.2 °C 21.2 °C 21.6 °C 21.5 °C 60000 m 1022 hPa
04:36 14.3 °C 13.2 °C 93 % 7 km/h (8 km/h) 0 mm0 mm 20.2 °C 21.2 °C 21.6 °C 21.5 °C 60000 m 1022 hPa
04:30 14.2 °C 13.1 °C 93 % 7 km/h (8 km/h) 0 mm0 mm 20.3 °C 21.2 °C 21.6 °C 21.5 °C 60000 m 1022 hPa
04:24 14.3 °C 13.2 °C 93 % 7 km/h (8 km/h) 0 mm0 mm 20.3 °C 21.2 °C 21.6 °C 21.5 °C 60000 m 1022 hPa
04:18 14.4 °C 12.9 °C 91 % 7 km/h (8 km/h) 0 mm0 mm 20.3 °C 21.3 °C 21.6 °C 21.5 °C 60000 m 1022.1 hPa
04:12 14.5 °C 13.2 °C 92 % 8 km/h (9 km/h) 0 mm0 mm 20.3 °C 21.3 °C 21.6 °C 21.5 °C 60000 m 1022.1 hPa
04:06 14.6 °C 13.1 °C 91 % 8 km/h (9 km/h) 0 mm0 mm 20.4 °C 21.3 °C 21.6 °C 21.5 °C 60000 m 1022.1 hPa
04:00 14.6 °C 13.3 °C 92 % 7 km/h (9 km/h) 0 mm0 mm 20.4 °C 21.3 °C 21.6 °C 21.5 °C 60000 m 1022.1 hPa
03:54 14.5 °C 13.4 °C 93 % 6 km/h (6 km/h) 0 mm0 mm 20.4 °C 21.3 °C 21.6 °C 21.5 °C 60000 m 1022.1 hPa
03:48 14.3 °C 13.3 °C 94 % 5 km/h (6 km/h) 0 mm0 mm 20.4 °C 21.3 °C 21.6 °C 21.5 °C 60000 m 1022.1 hPa
03:42 14.3 °C 13.2 °C 93 % 4 km/h (5 km/h) 0 mm0 mm 20.4 °C 21.3 °C 21.6 °C 21.5 °C 60000 m 1022.2 hPa
03:36 14.2 °C 12.9 °C 92 % 3 km/h (4 km/h) 0 mm0 mm 20.5 °C 21.3 °C 21.6 °C 21.5 °C 60000 m 1022.1 hPa
03:30 14.3 °C 13.2 °C 93 % 4 km/h (5 km/h) 0 mm0 mm 20.5 °C 21.3 °C 21.6 °C 21.5 °C 60000 m 1022.1 hPa
03:24 14.2 °C 12.9 °C 92 % 5 km/h (7 km/h) 0 mm0 mm 20.5 °C 21.3 °C 21.6 °C 21.5 °C 60000 m 1022 hPa
03:18 14.2 °C 12.8 °C 91 % 7 km/h (9 km/h) 0 mm0 mm 20.5 °C 21.3 °C 21.6 °C 21.5 °C 60000 m 1022 hPa
03:12 14.5 °C 12.7 °C 89 % 8 km/h (9 km/h) 0 mm0 mm 20.5 °C 21.4 °C 21.6 °C 21.5 °C 60000 m 1022 hPa
03:06 14.8 °C 13 °C 89 % 9 km/h (10 km/h) 0 mm0 mm 20.6 °C 21.4 °C 21.6 °C 21.5 °C 59930 m 1022.1 hPa
03:00 15 °C 13.2 °C 89 % 10 km/h (12 km/h) 0 mm0 mm 20.6 °C 21.4 °C 21.6 °C 21.5 °C 60000 m 1021.9 hPa
02:54 15.1 °C 13.3 °C 89 % 10 km/h (11 km/h) 0 mm0 mm 20.6 °C 21.4 °C 21.6 °C 21.5 °C 60000 m 1021.9 hPa
02:48 15.1 °C 13.3 °C 89 % 9 km/h (11 km/h) 0 mm0 mm 20.6 °C 21.4 °C 21.6 °C 21.5 °C 60000 m 1021.9 hPa
02:42 15 °C 13.4 °C 90 % 8 km/h (9 km/h) 0 mm0 mm 20.7 °C 21.4 °C 21.6 °C 21.5 °C 60000 m 1021.9 hPa
02:36 14.7 °C 13.2 °C 91 % 7 km/h (9 km/h) 0 mm0 mm 20.7 °C 21.4 °C 21.6 °C 21.5 °C 60000 m 1022 hPa
02:30 14.5 °C 13.2 °C 92 % 7 km/h (9 km/h) 0 mm0 mm 20.7 °C 21.4 °C 21.6 °C 21.5 °C 60000 m 1022 hPa
02:24 14.4 °C 12.9 °C 91 % 9 km/h (10 km/h) 0 mm0 mm 20.7 °C 21.4 °C 21.6 °C 21.5 °C 60000 m 1021.9 hPa
02:18 14.4 °C 12.8 °C 90 % 9 km/h (10 km/h) 0 mm0 mm 20.7 °C 21.4 °C 21.6 °C 21.5 °C 60000 m 1021.9 hPa
02:12 14.5 °C 12.7 °C 89 % 10 km/h (12 km/h) 0 mm0 mm 20.8 °C 21.4 °C 21.6 °C 21.5 °C 60000 m 1021.9 hPa
02:06 14.6 °C 12.5 °C 87 % 10 km/h (12 km/h) 0 mm0 mm 20.8 °C 21.4 °C 21.6 °C 21.5 °C 60000 m 1021.9 hPa
02:00 14.9 °C 12.9 °C 88 % 10 km/h (12 km/h) 0 mm0 mm 20.8 °C 21.4 °C 21.6 °C 21.5 °C 60000 m 1021.9 hPa
01:54 15.1 °C 13 °C 87 % 9 km/h (12 km/h) 0 mm0 mm 20.8 °C 21.5 °C 21.6 °C 21.5 °C 60000 m 1021.8 hPa
01:48 15.4 °C 13.1 °C 86 % 9 km/h (13 km/h) 0 mm0 mm 20.8 °C 21.5 °C 21.6 °C 21.5 °C 60000 m 1021.8 hPa
01:42 15.6 °C 13.4 °C 87 % 9 km/h (12 km/h) 0 mm0 mm 20.8 °C 21.5 °C 21.6 °C 21.5 °C 60000 m 1021.8 hPa
01:36 15.5 °C 13.2 °C 86 % 8 km/h (10 km/h) 0 mm0 mm 20.9 °C 21.5 °C 21.6 °C 21.5 °C 60000 m 1021.8 hPa
01:30 15.7 °C 13.4 °C 86 % 8 km/h (10 km/h) 0 mm0 mm 20.9 °C 21.5 °C 21.6 °C 21.5 °C 60000 m 1021.8 hPa
01:24 15.7 °C 13 °C 84 % 8 km/h (11 km/h) 0 mm0 mm 20.9 °C 21.5 °C 21.6 °C 21.5 °C 60000 m 1021.8 hPa
01:18 15.9 °C 13.2 °C 84 % 9 km/h (10 km/h) 0 mm0 mm 20.9 °C 21.5 °C 21.6 °C 21.5 °C 60000 m 1021.9 hPa
01:12 16 °C 13.3 °C 84 % 9 km/h (10 km/h) 0 mm0 mm 20.9 °C 21.5 °C 21.6 °C 21.5 °C 60000 m 1021.9 hPa
01:06 16.1 °C 13 °C 82 % 10 km/h (12 km/h) 0 mm0 mm 20.9 °C 21.5 °C 21.6 °C 21.5 °C 60000 m 1021.9 hPa
01:00 16.3 °C 13.2 °C 82 % 10 km/h (12 km/h) 0 mm0 mm 21 °C 21.5 °C 21.6 °C 21.5 °C 60000 m 1021.9 hPa
00:54 16.5 °C 13.2 °C 81 % 10 km/h (12 km/h) 0 mm0 mm 21 °C 21.5 °C 21.6 °C 21.5 °C 60000 m 1021.8 hPa
00:48 16.7 °C 13.4 °C 81 % 9 km/h (11 km/h) 0 mm0 mm 21 °C 21.5 °C 21.6 °C 21.5 °C 60000 m 1021.7 hPa
00:42 16.8 °C 13.3 °C 80 % 9 km/h (10 km/h) 0 mm0 mm 21 °C 21.5 °C 21.6 °C 21.5 °C 60000 m 1021.8 hPa
00:36 17 °C 13.5 °C 80 % 8 km/h (10 km/h) 0 mm0 mm 21 °C 21.5 °C 21.6 °C 21.5 °C 60000 m 1021.7 hPa
00:30 17.4 °C 13.5 °C 78 % 9 km/h (11 km/h) 0 mm0 mm 21 °C 21.5 °C 21.6 °C 21.5 °C 60000 m 1021.8 hPa
00:24 17.8 °C 13.9 °C 78 % 9 km/h (11 km/h) 0 mm0 mm 21 °C 21.5 °C 21.6 °C 21.5 °C 60000 m 1021.7 hPa
00:18 17.8 °C 13.7 °C 77 % 9 km/h (10 km/h) 0 mm0 mm 21.1 °C 21.6 °C 21.6 °C 21.5 °C 60000 m 1021.7 hPa
00:12 17.9 °C 13.6 °C 76 % 8 km/h (10 km/h) 0 mm0 mm 21.1 °C 21.6 °C 21.6 °C 21.5 °C 60000 m 1021.7 hPa
00:06 18 °C 13.7 °C 76 % 8 km/h (10 km/h) 0 mm0 mm 21.1 °C 21.6 °C 21.6 °C 21.5 °C 60000 m 1021.6 hPa
00:00 18 °C 13.5 °C 75 % 8 km/h (9 km/h) 0 mm0 mm 21.1 °C 21.6 °C 21.6 °C 21.5 °C 60000 m 1021.6 hPa 7 Octas

Données via Météo-France

Relevés météo à Avord

Cette page rassemble les observations de la station de Avord : température, humidité, vent, précipitations et pression atmosphérique. Les graphiques facilitent le suivi de la journée, tandis que le tableau donne accès aux mesures horaires et infra-horaires disponibles.

Pour replacer ces mesures dans leur contexte, consultez la climatologie de Avord ainsi que ses normales et records. Retrouvez aussi la carte des observations météo en temps réel.